Time;durP1;ratioP1;P1;durP2;ratioP2;P2;SDS_P1;SDS_P2;PMS_P1;PMS_P2;Temp;Humidity;BMP_temperature;BMP_pressure;BME280_temperature;BME280_humidity;BME280_pressure;Samples;Min_cycle;Max_cycle;Signal;HPM_P1;HPM_P2
2023/04/13 00:01:14;;;;;;;0.80;0.70;;;11.80;60.70;;;;;;5072089;28;21066;-87
2023/04/13 00:03:44;;;;;;;2.10;0.93;;;11.80;61.30;;;;;;5060035;28;20535;-86
2023/04/13 00:06:12;;;;;;;1.37;0.83;;;11.80;60.80;;;;;;5091784;28;20525;-86
2023/04/13 00:08:41;;;;;;;0.87;0.67;;;12.00;60.30;;;;;;5073014;28;20440;-85
2023/04/13 00:11:09;;;;;;;1.00;0.90;;;12.10;59.60;;;;;;5087508;27;20968;-85
2023/04/13 00:13:39;;;;;;;2.27;0.70;;;11.90;59.90;;;;;;5093070;27;20545;-84
2023/04/13 00:16:08;;;;;;;0.87;0.70;;;11.80;60.20;;;;;;5089599;27;20581;-83
2023/04/13 00:18:35;;;;;;;1.00;0.80;;;11.90;59.80;;;;;;5081863;28;20472;-86
2023/04/13 00:21:02;;;;;;;0.97;0.80;;;11.90;59.80;;;;;;5094182;27;20455;-86
2023/04/13 00:23:30;;;;;;;1.30;1.20;;;12.20;59.80;;;;;;5064614;28;21179;-86
2023/04/13 00:26:00;;;;;;;0.87;0.80;;;12.20;59.00;;;;;;5062954;27;21134;-84
2023/04/13 00:28:27;;;;;;;1.57;0.97;;;12.20;58.70;;;;;;5088309;28;20459;-87
2023/04/13 00:30:55;;;;;;;1.00;0.90;;;12.40;59.00;;;;;;5063560;27;21489;-85
2023/04/13 00:33:22;;;;;;;0.90;0.80;;;12.60;58.60;;;;;;5087927;28;20473;-86
2023/04/13 00:35:51;;;;;;;0.90;0.73;;;12.60;57.90;;;;;;5069835;28;20468;-84
2023/04/13 00:38:19;;;;;;;2.20;0.90;;;12.40;57.20;;;;;;5075795;28;20448;-87
2023/04/13 00:40:47;;;;;;;0.90;0.70;;;12.20;57.60;;;;;;5063878;28;20527;-85
2023/04/13 00:43:16;;;;;;;1.00;0.77;;;11.80;58.40;;;;;;5089483;28;20534;-85
2023/04/13 00:45:44;;;;;;;2.60;0.93;;;11.60;58.90;;;;;;5090912;28;20446;-83
2023/04/13 00:48:12;;;;;;;2.30;0.90;;;11.70;58.80;;;;;;5057620;28;20531;-86
2023/04/13 00:50:40;;;;;;;0.90;0.77;;;11.80;58.20;;;;;;5064054;28;20462;-86
2023/04/13 00:53:07;;;;;;;1.20;0.93;;;11.80;57.80;;;;;;5103273;27;20566;-84
2023/04/13 00:55:39;;;;;;;1.73;0.80;;;11.90;57.60;;;;;;5064181;28;20472;-86
2023/04/13 00:58:07;;;;;;;1.40;1.17;;;11.90;57.50;;;;;;5081023;27;20970;-87
2023/04/13 01:00:37;;;;;;;0.93;0.80;;;11.80;57.70;;;;;;5090218;28;20467;-86
2023/04/13 01:03:05;;;;;;;1.20;0.80;;;11.70;58.00;;;;;;5088443;28;22332;-85
2023/04/13 01:05:36;;;;;;;0.90;0.70;;;11.50;58.10;;;;;;5089482;28;20434;-86
2023/04/13 01:08:11;;;;;;;1.70;0.90;;;11.40;58.40;;;;;;5090328;27;20435;-86
2023/04/13 01:10:43;;;;;;;1.37;0.90;;;11.40;58.70;;;;;;5060801;28;20451;-87
2023/04/13 01:13:19;;;;;;;1.20;0.70;;;11.50;58.20;;;;;;5077969;28;20962;-85
2023/04/13 01:15:57;;;;;;;1.13;0.90;;;11.70;57.60;;;;;;5063392;28;20478;-86
2023/04/13 01:18:26;;;;;;;1.47;0.93;;;11.40;58.60;;;;;;5063443;28;20458;-84
2023/04/13 01:20:54;;;;;;;3.03;0.90;;;11.40;58.90;;;;;;5071101;28;21094;-86
2023/04/13 01:23:37;;;;;;;1.43;0.80;;;11.30;59.10;;;;;;5054118;28;21013;-86
2023/04/13 01:26:07;;;;;;;1.40;1.00;;;11.30;58.60;;;;;;5064871;28;20461;-86
2023/04/13 01:28:37;;;;;;;1.13;0.93;;;11.40;59.30;;;;;;5088064;28;20474;-87
2023/04/13 01:31:10;;;;;;;1.57;0.97;;;11.20;59.20;;;;;;5092522;27;20469;-85
2023/04/13 01:33:39;;;;;;;1.30;1.00;;;11.40;59.30;;;;;;5064233;28;20535;-86
2023/04/13 01:36:09;;;;;;;1.53;1.20;;;11.60;59.30;;;;;;5072072;28;20466;-87
2023/04/13 01:38:37;;;;;;;1.40;1.10;;;11.60;58.60;;;;;;5088498;28;20535;-86
2023/04/13 01:41:07;;;;;;;1.67;1.10;;;11.40;59.40;;;;;;5057886;28;21013;-86
2023/04/13 01:43:37;;;;;;;1.57;1.10;;;11.40;59.50;;;;;;5053712;28;20447;-86
2023/04/13 01:46:10;;;;;;;1.33;1.10;;;11.40;59.80;;;;;;5070072;28;21402;-85
2023/04/13 01:48:56;;;;;;;1.47;1.10;;;11.40;59.90;;;;;;5070998;28;20459;-85
2023/04/13 01:51:48;;;;;;;0.87;0.83;;;11.30;60.10;;;;;;5088847;28;20462;-87
2023/04/13 01:54:24;;;;;;;1.20;0.90;;;11.20;60.60;;;;;;5072401;28;20482;-86
2023/04/13 01:56:52;;;;;;;1.60;1.27;;;11.00;60.40;;;;;;5102608;27;20524;-86
2023/04/13 01:59:21;;;;;;;5.23;1.10;;;11.00;60.10;;;;;;5089596;28;20865;-85
2023/04/13 02:01:48;;;;;;;1.10;1.00;;;11.00;60.50;;;;;;5088337;28;20471;-86
2023/04/13 02:04:15;;;;;;;4.03;1.30;;;11.00;60.50;;;;;;5078319;28;20439;-87
2023/04/13 02:06:45;;;;;;;1.43;0.90;;;11.10;60.10;;;;;;5091499;28;20539;-87
2023/04/13 02:09:12;;;;;;;2.77;1.10;;;10.70;60.90;;;;;;5088606;28;20994;-86
2023/04/13 02:11:39;;;;;;;1.57;0.80;;;10.60;61.60;;;;;;5052760;28;20471;-86
2023/04/13 02:14:08;;;;;;;2.10;1.10;;;10.70;61.30;;;;;;5081495;28;22543;-83
2023/04/13 02:16:37;;;;;;;1.67;1.30;;;10.90;61.00;;;;;;5065695;28;20470;-86
2023/04/13 02:19:04;;;;;;;2.30;1.00;;;11.10;60.40;;;;;;5069712;28;20966;-86
2023/04/13 02:21:31;;;;;;;4.20;1.30;;;11.10;59.50;;;;;;5058426;28;20493;-86
2023/04/13 02:23:58;;;;;;;1.10;1.00;;;11.10;59.60;;;;;;5072359;28;20451;-86
2023/04/13 02:26:26;;;;;;;3.87;1.43;;;11.10;59.50;;;;;;5070347;28;20547;-85
2023/04/13 02:28:53;;;;;;;1.20;0.90;;;11.40;59.60;;;;;;5072893;28;20536;-86
2023/04/13 02:31:22;;;;;;;1.37;1.13;;;11.30;59.40;;;;;;5071483;28;21345;-86
2023/04/13 02:33:50;;;;;;;1.10;1.00;;;11.20;59.10;;;;;;5091127;28;20534;-83
2023/04/13 02:36:18;;;;;;;1.43;1.30;;;10.90;60.10;;;;;;5055333;28;20476;-87
2023/04/13 02:39:06;;;;;;;3.43;1.00;;;10.70;60.40;;;;;;5059710;28;20482;-85
2023/04/13 02:41:34;;;;;;;2.47;1.30;;;10.50;61.50;;;;;;5083605;28;20549;-86
2023/04/13 02:44:02;;;;;;;1.70;0.90;;;10.50;61.50;;;;;;5090667;28;20443;-87
2023/04/13 02:46:35;;;;;;;1.53;1.00;;;10.50;61.40;;;;;;5106736;27;20692;-85
2023/04/13 02:49:11;;;;;;;1.67;1.03;;;10.20;62.30;;;;;;5070422;28;20459;-87
2023/04/13 02:51:46;;;;;;;2.13;1.00;;;10.00;62.40;;;;;;5073887;28;21281;-85
2023/04/13 02:54:14;;;;;;;4.97;1.00;;;10.10;63.00;;;;;;5091486;27;20450;-86
2023/04/13 02:56:46;;;;;;;2.00;1.13;;;10.20;62.30;;;;;;5094671;28;20460;-87
2023/04/13 02:59:13;;;;;;;4.00;0.90;;;10.30;60.90;;;;;;5081252;27;21212;-86
2023/04/13 03:01:41;;;;;;;1.33;0.90;;;10.20;61.50;;;;;;5077977;28;20512;-86
2023/04/13 03:04:11;;;;;;;2.40;1.10;;;10.30;60.90;;;;;;5071882;28;20573;-84
2023/04/13 03:06:38;;;;;;;2.60;1.00;;;10.30;60.20;;;;;;5073256;28;20447;-86
2023/04/13 03:09:06;;;;;;;2.20;0.90;;;10.20;60.40;;;;;;5082470;28;20451;-86
2023/04/13 03:11:40;;;;;;;2.40;0.97;;;10.20;60.60;;;;;;5061414;28;20493;-86
2023/04/13 03:14:19;;;;;;;2.03;0.80;;;10.20;60.50;;;;;;5073350;28;20460;-87
2023/04/13 03:16:47;;;;;;;1.47;1.07;;;10.40;60.00;;;;;;5056517;28;20466;-86
2023/04/13 03:19:16;;;;;;;1.73;1.00;;;10.50;60.20;;;;;;5073170;28;20479;-86
2023/04/13 03:21:46;;;;;;;1.80;1.00;;;10.50;58.70;;;;;;5090952;28;20549;-87
2023/04/13 03:24:17;;;;;;;2.87;1.20;;;10.60;59.40;;;;;;5058496;28;20463;-87
2023/04/13 03:26:45;;;;;;;0.90;0.80;;;10.40;58.60;;;;;;5043938;28;20443;-86
2023/04/13 03:29:17;;;;;;;1.43;0.93;;;10.20;58.70;;;;;;5073528;28;20507;-86
2023/04/13 03:31:46;;;;;;;6.03;1.20;;;10.20;59.30;;;;;;5081147;28;20467;-87
2023/04/13 03:34:13;;;;;;;6.73;3.87;;;10.10;59.10;;;;;;5072970;27;20496;-87
2023/04/13 03:36:44;;;;;;;5.33;1.20;;;10.00;58.50;;;;;;5050357;28;20539;-86
2023/04/13 03:39:11;;;;;;;3.23;1.70;;;9.90;60.20;;;;;;5063752;28;20466;-86
2023/04/13 03:42:04;;;;;;;1.33;0.90;;;9.90;59.80;;;;;;5108491;27;20466;-85
2023/04/13 03:44:31;;;;;;;1.37;1.10;;;10.00;58.80;;;;;;5097659;27;20880;-86
2023/04/13 03:47:00;;;;;;;3.63;1.20;;;10.10;59.00;;;;;;5092578;27;20442;-86
2023/04/13 03:49:31;;;;;;;1.00;0.87;;;10.10;58.60;;;;;;5093728;27;20454;-85
2023/04/13 03:52:00;;;;;;;2.20;0.80;;;10.10;58.00;;;;;;5090902;27;20574;-86
2023/04/13 03:54:32;;;;;;;1.00;0.90;;;10.20;57.60;;;;;;5077096;27;20465;-86
2023/04/13 03:57:01;;;;;;;3.70;1.10;;;10.30;58.20;;;;;;5090754;27;20510;-87
2023/04/13 03:59:31;;;;;;;2.20;1.00;;;10.40;57.60;;;;;;5076462;27;20450;-87
2023/04/13 04:01:58;;;;;;;2.10;0.90;;;10.10;58.00;;;;;;5077769;27;20461;-84
2023/04/13 04:04:25;;;;;;;1.93;0.73;;;10.20;58.50;;;;;;5090750;27;20461;-87
2023/04/13 04:06:53;;;;;;;1.53;1.20;;;10.20;58.20;;;;;;5092210;27;20925;-85
2023/04/13 04:09:23;;;;;;;2.60;1.17;;;10.10;57.90;;;;;;5092003;27;20457;-85
2023/04/13 04:11:50;;;;;;;1.77;0.83;;;10.20;58.50;;;;;;5076400;28;21026;-84
2023/04/13 04:14:25;;;;;;;1.60;1.40;;;10.20;57.80;;;;;;5055490;28;20892;-87
2023/04/13 04:16:59;;;;;;;2.70;1.20;;;10.30;57.50;;;;;;5088224;27;20467;-87
2023/04/13 04:19:26;;;;;;;2.20;1.00;;;10.40;57.40;;;;;;5089279;28;20456;-87
2023/04/13 04:21:56;;;;;;;4.40;1.80;;;10.70;57.50;;;;;;5056040;28;21027;-84
2023/04/13 04:24:26;;;;;;;5.53;2.97;;;10.50;56.30;;;;;;5065216;28;20528;-86
2023/04/13 04:26:57;;;;;;;2.67;1.70;;;10.40;56.60;;;;;;5072010;28;20448;-88
2023/04/13 04:29:33;;;;;;;1.83;0.80;;;10.60;57.20;;;;;;5105464;27;20435;-86
2023/04/13 04:32:03;;;;;;;4.10;1.00;;;10.50;56.00;;;;;;5079517;28;20470;-87
2023/04/13 04:34:30;;;;;;;1.57;0.90;;;10.30;57.50;;;;;;5073115;28;20540;-85
2023/04/13 04:36:58;;;;;;;3.60;0.97;;;10.30;57.10;;;;;;5075132;28;20474;-86
2023/04/13 04:39:31;;;;;;;2.30;1.40;;;10.40;56.80;;;;;;5078664;28;20487;-86
2023/04/13 04:42:09;;;;;;;2.00;1.43;;;10.60;56.60;;;;;;5054370;28;20554;-86
2023/04/13 04:44:38;;;;;;;1.37;1.10;;;10.80;57.20;;;;;;5053997;28;20616;-86
2023/04/13 04:47:09;;;;;;;8.63;1.10;;;10.70;56.40;;;;;;5068710;28;20451;-85
2023/04/13 04:49:49;;;;;;;2.10;1.00;;;10.50;57.00;;;;;;5086971;28;20576;-86
2023/04/13 04:52:17;;;;;;;1.07;0.93;;;10.80;56.10;;;;;;5083915;28;20521;-85
2023/04/13 04:54:46;;;;;;;2.13;1.40;;;10.70;55.30;;;;;;5055559;28;20455;-86
2023/04/13 04:57:14;;;;;;;4.53;1.20;;;10.60;55.50;;;;;;5047467;28;20669;-84
2023/04/13 04:59:41;;;;;;;1.67;1.17;;;10.50;56.00;;;;;;5062960;28;20451;-85
2023/04/13 05:02:08;;;;;;;2.33;1.10;;;10.60;55.30;;;;;;5087836;28;20459;-87
2023/04/13 05:04:35;;;;;;;1.20;0.93;;;10.70;56.20;;;;;;5071816;28;20550;-86
2023/04/13 05:07:02;;;;;;;5.30;1.30;;;11.00;55.20;;;;;;5085693;28;20471;-86
2023/04/13 05:09:36;;;;;;;2.70;1.53;;;11.00;55.30;;;;;;5077214;28;21540;-86
2023/04/13 05:12:04;;;;;;;1.97;1.00;;;11.00;55.60;;;;;;5087242;28;20462;-87
2023/04/13 05:14:32;;;;;;;1.90;1.27;;;10.90;55.40;;;;;;5070424;28;20471;-88
2023/04/13 05:17:00;;;;;;;3.70;1.33;;;10.70;56.10;;;;;;5071994;28;20561;-87
2023/04/13 05:19:35;;;;;;;2.90;1.10;;;10.60;56.70;;;;;;5072352;28;20811;-87
2023/04/13 05:22:21;;;;;;;2.00;0.80;;;10.70;56.30;;;;;;5054295;27;20482;-86
2023/04/13 05:24:53;;;;;;;3.87;1.07;;;10.80;56.30;;;;;;5069899;28;20459;-86
2023/04/13 05:27:23;;;;;;;1.77;1.17;;;10.90;56.00;;;;;;5066527;28;20455;-86
2023/04/13 05:29:50;;;;;;;1.30;1.07;;;11.20;56.30;;;;;;5104140;27;20487;-86
2023/04/13 05:32:21;;;;;;;5.40;1.60;;;11.30;54.70;;;;;;5058553;28;20479;-85
2023/04/13 05:34:50;;;;;;;5.27;1.20;;;11.20;55.20;;;;;;5061113;28;20956;-85
2023/04/13 05:37:21;;;;;;;1.43;1.33;;;11.10;55.40;;;;;;5067361;28;20486;-85
2023/04/13 05:39:48;;;;;;;3.53;1.60;;;10.90;56.70;;;;;;5071443;28;20450;-86
2023/04/13 05:42:19;;;;;;;5.07;1.73;;;10.60;56.40;;;;;;5073013;28;20486;-87
2023/04/13 05:44:48;;;;;;;2.23;0.93;;;10.50;56.60;;;;;;5069157;28;20879;-85
2023/04/13 05:47:18;;;;;;;1.23;1.13;;;10.60;57.40;;;;;;5078619;28;20488;-86
2023/04/13 05:49:47;;;;;;;1.97;1.50;;;11.00;56.70;;;;;;5071698;28;21050;-86
2023/04/13 05:52:15;;;;;;;3.10;1.43;;;11.00;56.90;;;;;;5068694;28;20547;-84
2023/04/13 05:54:46;;;;;;;5.57;1.20;;;11.20;55.50;;;;;;5063451;28;20526;-86
2023/04/13 05:57:13;;;;;;;4.53;1.40;;;10.90;55.30;;;;;;5051510;28;20483;-86
2023/04/13 05:59:45;;;;;;;2.23;1.20;;;11.00;56.90;;;;;;5058912;28;20452;-85
2023/04/13 06:02:15;;;;;;;3.93;3.63;;;10.50;56.30;;;;;;5052911;28;20463;-85
2023/04/13 06:04:42;;;;;;;1.63;1.20;;;10.50;57.20;;;;;;5066695;28;20459;-85
2023/04/13 06:07:13;;;;;;;3.27;1.20;;;10.60;56.80;;;;;;5053707;28;20444;-86
2023/04/13 06:09:41;;;;;;;5.83;1.57;;;10.50;57.80;;;;;;5089860;28;20443;-86
2023/04/13 06:12:08;;;;;;;4.10;1.30;;;10.70;57.30;;;;;;5073914;27;20475;-86
2023/04/13 06:14:35;;;;;;;4.20;1.30;;;10.80;56.70;;;;;;5082468;28;20456;-86
2023/04/13 06:17:02;;;;;;;2.47;1.37;;;10.90;56.00;;;;;;5078939;28;20469;-86
2023/04/13 06:19:31;;;;;;;3.23;1.10;;;10.80;56.60;;;;;;5071855;28;20451;-86
2023/04/13 06:21:58;;;;;;;1.50;1.20;;;11.10;56.60;;;;;;5073397;28;20574;-86
2023/04/13 06:24:26;;;;;;;8.33;2.07;;;11.10;56.30;;;;;;5080729;28;20454;-87
2023/04/13 06:26:53;;;;;;;3.17;1.40;;;11.20;56.00;;;;;;5076117;28;20444;-86
2023/04/13 06:29:20;;;;;;;2.13;1.20;;;11.30;55.90;;;;;;5087437;27;20543;-86
2023/04/13 06:31:57;;;;;;;5.43;1.90;;;11.30;55.90;;;;;;5081680;28;20467;-86
2023/04/13 06:34:26;;;;;;;4.50;1.40;;;11.30;56.10;;;;;;5076875;28;20452;-86
2023/04/13 06:36:54;;;;;;;1.70;1.20;;;11.40;55.50;;;;;;5064443;28;21261;-86
2023/04/13 06:39:23;;;;;;;3.83;1.80;;;11.30;56.20;;;;;;5071120;27;20463;-86
2023/04/13 06:41:57;;;;;;;3.70;2.70;;;11.40;55.70;;;;;;5078002;28;20467;-86
2023/04/13 06:44:44;;;;;;;7.33;1.43;;;11.50;55.40;;;;;;5080604;28;20447;-86
2023/04/13 06:47:12;;;;;;;2.53;2.33;;;11.50;54.80;;;;;;5072972;28;20440;-88
2023/04/13 06:49:40;;;;;;;4.57;2.27;;;11.60;54.90;;;;;;5073070;28;20459;-87
2023/04/13 06:52:09;;;;;;;8.50;2.03;;;11.80;54.50;;;;;;5076593;28;20494;-85
2023/04/13 06:54:36;;;;;;;4.50;1.47;;;12.00;54.40;;;;;;5091409;27;20454;-88
2023/04/13 06:57:12;;;;;;;8.80;2.37;;;12.00;54.80;;;;;;5053315;28;20466;-86
2023/04/13 06:59:41;;;;;;;2.07;1.90;;;12.10;54.90;;;;;;5056145;28;20478;-87
2023/04/13 07:02:08;;;;;;;3.17;1.20;;;11.80;54.80;;;;;;5076372;28;20557;-87
2023/04/13 07:04:37;;;;;;;5.90;1.53;;;11.80;54.40;;;;;;5067517;28;20462;-87
2023/04/13 07:07:04;;;;;;;2.17;1.40;;;12.10;54.20;;;;;;5085922;28;21148;-89
2023/04/13 07:09:33;;;;;;;3.47;1.30;;;12.00;53.90;;;;;;5083927;28;20463;-88
2023/04/13 07:12:03;;;;;;;4.23;1.00;;;11.70;54.80;;;;;;5111723;27;20479;-88
2023/04/13 07:14:33;;;;;;;4.57;1.40;;;11.40;54.50;;;;;;5094796;28;20464;-87
2023/04/13 07:17:00;;;;;;;3.17;1.30;;;11.50;55.30;;;;;;5113868;27;20555;-88
2023/04/13 07:19:30;;;;;;;7.00;1.73;;;11.70;55.00;;;;;;5087962;28;20452;-88
2023/04/13 07:21:59;;;;;;;2.70;0.93;;;11.90;55.50;;;;;;5080894;28;20471;-87
2023/04/13 07:24:26;;;;;;;3.97;1.80;;;11.80;54.60;;;;;;5086805;28;20449;-88
2023/04/13 07:26:56;;;;;;;6.30;1.40;;;12.00;55.30;;;;;;5062552;28;20446;-88
2023/04/13 07:29:24;;;;;;;1.50;1.20;;;12.00;54.50;;;;;;5057311;28;20477;-87
2023/04/13 07:31:59;;;;;;;4.53;1.40;;;12.20;54.80;;;;;;5074065;28;20471;-85
2023/04/13 07:34:26;;;;;;;5.33;1.63;;;12.40;54.30;;;;;;5061740;28;20451;-88
2023/04/13 07:36:54;;;;;;;8.63;2.23;;;12.40;53.60;;;;;;5058009;28;20482;-86
2023/04/13 07:39:22;;;;;;;7.00;1.53;;;12.30;53.30;;;;;;5050436;27;20458;-86
2023/04/13 07:41:52;;;;;;;3.90;1.67;;;12.20;53.30;;;;;;5072187;28;20475;-86
2023/04/13 07:44:27;;;;;;;3.27;1.37;;;12.40;53.50;;;;;;5063096;28;20443;-87
2023/04/13 07:46:55;;;;;;;2.80;1.30;;;12.50;53.10;;;;;;5088040;27;20980;-85
2023/04/13 07:49:24;;;;;;;4.57;4.17;;;12.50;53.50;;;;;;5073421;28;20450;-85
2023/04/13 07:51:53;;;;;;;5.43;1.97;;;12.70;52.70;;;;;;5073467;28;20490;-86
2023/04/13 07:54:21;;;;;;;14.53;1.60;;;12.70;52.20;;;;;;5090241;27;21087;-84
2023/04/13 07:56:49;;;;;;;4.37;1.67;;;12.70;52.50;;;;;;5065340;28;20976;-86
2023/04/13 07:59:19;;;;;;;3.40;1.50;;;12.80;52.20;;;;;;5080198;28;20487;-86
2023/04/13 08:01:48;;;;;;;1.67;1.20;;;12.80;51.20;;;;;;5070749;28;20782;-85
2023/04/13 08:04:15;;;;;;;3.10;1.80;;;12.70;50.80;;;;;;5064018;28;20454;-86
2023/04/13 08:06:44;;;;;;;5.43;1.87;;;12.80;51.70;;;;;;5047452;28;20443;-86
2023/04/13 08:09:11;;;;;;;2.40;1.30;;;13.00;51.50;;;;;;5092950;27;20537;-85
2023/04/13 08:11:38;;;;;;;2.27;1.30;;;12.90;49.90;;;;;;5058259;28;20498;-86
2023/04/13 08:14:08;;;;;;;8.90;1.60;;;12.80;51.20;;;;;;5080533;28;20545;-86
2023/04/13 08:16:37;;;;;;;5.93;1.37;;;13.00;51.10;;;;;;5069072;28;20474;-85
2023/04/13 08:19:12;;;;;;;5.43;1.80;;;12.80;50.20;;;;;;5072045;27;20518;-86
2023/04/13 08:21:46;;;;;;;5.70;1.47;;;12.90;51.50;;;;;;5064333;28;20478;-86
2023/04/13 08:24:14;;;;;;;4.80;1.43;;;13.00;49.90;;;;;;5089517;28;20458;-85
2023/04/13 08:26:42;;;;;;;4.50;1.83;;;13.10;50.10;;;;;;5067403;28;20516;-85
2023/04/13 08:29:10;;;;;;;4.93;1.50;;;13.10;50.20;;;;;;5075124;28;20492;-86
2023/04/13 08:31:37;;;;;;;10.80;1.67;;;13.00;50.80;;;;;;5063487;28;20495;-86
2023/04/13 08:34:09;;;;;;;3.20;1.40;;;13.00;52.00;;;;;;5088603;28;21049;-85
2023/04/13 08:36:38;;;;;;;2.80;1.40;;;13.00;51.80;;;;;;5055510;28;20467;-87
2023/04/13 08:39:09;;;;;;;2.20;1.00;;;12.90;50.80;;;;;;5048530;28;20451;-85
2023/04/13 08:41:39;;;;;;;2.93;1.30;;;12.80;52.60;;;;;;5081495;28;20466;-86
2023/04/13 08:44:07;;;;;;;3.57;1.10;;;12.80;51.80;;;;;;5081116;28;21099;-85
2023/04/13 08:46:41;;;;;;;3.40;1.67;;;12.90;51.80;;;;;;5063618;28;20451;-86
2023/04/13 08:49:10;;;;;;;3.00;1.40;;;13.10;51.00;;;;;;5087204;28;20467;-85
2023/04/13 08:52:07;;;;;;;3.60;1.20;;;13.00;51.10;;;;;;5085937;27;20992;-85
2023/04/13 08:54:36;;;;;;;2.40;1.20;;;13.10;51.50;;;;;;5055794;28;20442;-86
2023/04/13 08:57:07;;;;;;;4.67;1.40;;;13.40;51.50;;;;;;5072980;28;20525;-87
2023/04/13 08:59:40;;;;;;;7.60;3.67;;;13.30;51.10;;;;;;5046580;28;20456;-86
2023/04/13 09:02:09;;;;;;;4.80;1.90;;;13.40;50.80;;;;;;5047193;28;20513;-84
2023/04/13 09:04:49;;;;;;;8.17;1.40;;;13.60;51.60;;;;;;5062602;28;20843;-86
2023/04/13 09:07:26;;;;;;;2.60;1.20;;;13.70;51.30;;;;;;5071236;28;20963;-86
2023/04/13 09:09:59;;;;;;;3.70;1.20;;;13.70;50.70;;;;;;5087703;27;20513;-85
2023/04/13 09:12:27;;;;;;;4.07;1.13;;;13.50;50.40;;;;;;5058621;28;20465;-85
2023/04/13 09:14:54;;;;;;;4.80;3.30;;;13.30;51.00;;;;;;5067985;28;20824;-85
2023/04/13 09:17:26;;;;;;;1.37;1.10;;;13.30;51.10;;;;;;5056963;28;20465;-86
2023/04/13 09:19:56;;;;;;;3.50;1.70;;;13.20;51.70;;;;;;5058650;28;20545;-86
2023/04/13 09:22:29;;;;;;;2.70;1.73;;;13.20;50.70;;;;;;5066757;28;20470;-85
2023/04/13 09:24:57;;;;;;;2.20;1.10;;;13.20;52.20;;;;;;5089960;28;20455;-86
2023/04/13 09:27:25;;;;;;;3.10;1.10;;;13.20;51.60;;;;;;5043610;28;20454;-87
2023/04/13 09:29:53;;;;;;;11.60;4.43;;;13.50;51.70;;;;;;5038430;28;20490;-86
2023/04/13 09:32:21;;;;;;;2.97;1.40;;;13.60;51.20;;;;;;5085821;27;20556;-86
2023/04/13 09:34:59;;;;;;;3.93;3.07;;;13.30;51.20;;;;;;5088534;28;20549;-86
2023/04/13 09:37:35;;;;;;;5.47;2.27;;;13.30;51.40;;;;;;5084716;28;20463;-86
2023/04/13 09:40:10;;;;;;;4.90;1.30;;;13.40;51.70;;;;;;5085640;28;20451;-87
2023/04/13 09:42:38;;;;;;;3.70;2.30;;;13.30;51.60;;;;;;5087309;28;20481;-87
2023/04/13 09:45:06;;;;;;;4.30;1.63;;;13.40;51.70;;;;;;5069971;28;20443;-87
2023/04/13 09:47:39;;;;;;;3.10;1.10;;;13.20;53.20;;;;;;5055647;28;20442;-87
2023/04/13 09:50:17;;;;;;;3.10;1.20;;;13.00;53.60;;;;;;5060565;28;20450;-87
2023/04/13 09:52:45;;;;;;;1.63;1.37;;;12.90;55.70;;;;;;5086172;28;20478;-87
2023/04/13 09:55:16;;;;;;;2.10;1.23;;;13.00;55.80;;;;;;5102842;28;20536;-87
2023/04/13 09:57:44;;;;;;;1.70;1.10;;;13.00;55.30;;;;;;5087519;28;20467;-88
2023/04/13 10:00:19;;;;;;;2.20;1.07;;;13.00;54.60;;;;;;5044648;28;20442;-85
2023/04/13 10:02:48;;;;;;;1.90;1.23;;;12.90;54.70;;;;;;5057736;28;20462;-87
2023/04/13 10:05:16;;;;;;;7.90;1.73;;;13.00;54.70;;;;;;5087310;28;20452;-88
2023/04/13 10:07:44;;;;;;;2.17;1.40;;;13.10;54.60;;;;;;5085998;28;20527;-87
2023/04/13 10:10:12;;;;;;;4.50;1.70;;;12.90;53.70;;;;;;5088028;28;20535;-85
2023/04/13 10:12:44;;;;;;;3.83;1.27;;;12.90;54.80;;;;;;5069549;28;20564;-87
2023/04/13 10:15:21;;;;;;;2.00;1.33;;;12.70;53.30;;;;;;5090517;28;20478;-86
2023/04/13 10:17:57;;;;;;;4.63;2.73;;;12.50;55.10;;;;;;5068825;28;22377;-87
2023/04/13 10:20:25;;;;;;;1.43;1.23;;;12.70;54.90;;;;;;5067530;28;20454;-87
2023/04/13 10:22:57;;;;;;;2.70;1.10;;;12.80;54.60;;;;;;5067643;28;21092;-87
2023/04/13 10:25:25;;;;;;;1.47;1.20;;;12.90;54.20;;;;;;5084605;28;20853;-87
2023/04/13 10:27:57;;;;;;;2.40;1.07;;;12.90;54.70;;;;;;5084540;28;20551;-87
2023/04/13 10:30:25;;;;;;;4.17;1.27;;;13.00;54.10;;;;;;5100832;27;20674;-86
2023/04/13 10:33:02;;;;;;;6.23;1.20;;;13.20;53.30;;;;;;5054166;28;20488;-87
2023/04/13 10:35:29;;;;;;;3.47;1.07;;;13.30;53.60;;;;;;5084854;28;20450;-87
2023/04/13 10:37:58;;;;;;;3.27;1.53;;;13.30;52.60;;;;;;5061405;28;20466;-86
2023/04/13 10:40:25;;;;;;;3.40;1.60;;;13.50;53.60;;;;;;5067581;28;20595;-87
2023/04/13 10:42:52;;;;;;;1.23;1.10;;;13.90;52.70;;;;;;5101623;27;20555;-87
2023/04/13 10:45:22;;;;;;;2.50;1.07;;;14.20;52.70;;;;;;5086370;28;20527;-88
2023/04/13 10:47:50;;;;;;;2.33;1.10;;;14.40;51.90;;;;;;5065741;28;20443;-87
2023/04/13 10:50:18;;;;;;;3.73;1.10;;;14.40;50.50;;;;;;5054811;28;20899;-86
2023/04/13 10:53:01;;;;;;;1.50;1.20;;;14.40;50.80;;;;;;5035070;28;20929;-85
2023/04/13 10:55:29;;;;;;;3.77;1.20;;;14.20;50.90;;;;;;5073759;28;21140;-86
2023/04/13 10:57:58;;;;;;;4.77;1.93;;;14.00;51.00;;;;;;5061554;28;20532;-86
2023/04/13 11:00:27;;;;;;;3.83;1.50;;;14.20;50.80;;;;;;5089587;28;20450;-86
2023/04/13 11:02:56;;;;;;;14.60;8.00;;;14.20;50.70;;;;;;5104655;27;20503;-86
2023/04/13 11:05:25;;;;;;;5.37;1.50;;;14.40;50.70;;;;;;5072510;28;20471;-86
2023/04/13 11:07:53;;;;;;;3.40;1.53;;;14.40;50.00;;;;;;5086914;28;20443;-87
2023/04/13 11:10:26;;;;;;;2.73;1.30;;;14.30;50.60;;;;;;5086849;27;20458;-85
2023/04/13 11:12:55;;;;;;;2.23;1.63;;;14.50;51.40;;;;;;5078076;28;21195;-85
2023/04/13 11:15:23;;;;;;;3.87;1.47;;;14.70;50.10;;;;;;5088151;28;20552;-85
2023/04/13 11:17:54;;;;;;;2.80;1.90;;;14.80;51.30;;;;;;5088271;28;20495;-85
2023/04/13 11:20:31;;;;;;;4.50;2.30;;;14.60;49.30;;;;;;5096964;28;20443;-86
2023/04/13 11:22:58;;;;;;;2.17;1.17;;;14.70;50.10;;;;;;5073428;28;20811;-86
2023/04/13 11:25:27;;;;;;;1.67;1.20;;;14.60;48.90;;;;;;5083516;27;20466;-86
2023/04/13 11:27:59;;;;;;;1.93;1.10;;;14.60;49.90;;;;;;5086729;28;20538;-85
2023/04/13 11:30:27;;;;;;;5.23;2.27;;;14.60;49.80;;;;;;5089252;27;20443;-85
2023/04/13 11:32:55;;;;;;;2.77;2.17;;;14.80;49.10;;;;;;5088322;27;20985;-86
2023/04/13 11:35:23;;;;;;;2.00;1.20;;;15.00;49.30;;;;;;5069948;28;20439;-85
2023/04/13 11:37:52;;;;;;;2.70;1.37;;;15.10;49.20;;;;;;5069219;28;20547;-85
2023/04/13 11:40:23;;;;;;;3.53;1.20;;;14.80;48.20;;;;;;5086523;28;20451;-85
2023/04/13 11:42:53;;;;;;;4.83;1.50;;;14.90;48.90;;;;;;5088678;28;20608;-87
2023/04/13 11:45:21;;;;;;;1.83;1.30;;;14.90;48.50;;;;;;5072753;28;20482;-84
2023/04/13 11:47:50;;;;;;;2.10;1.17;;;14.90;48.70;;;;;;5083437;28;20501;-85
2023/04/13 11:50:18;;;;;;;2.13;1.10;;;14.90;48.60;;;;;;5086540;27;20455;-85
2023/04/13 11:52:47;;;;;;;2.83;1.90;;;14.70;49.30;;;;;;5068975;28;20579;-86
2023/04/13 11:55:15;;;;;;;2.50;1.17;;;14.80;48.80;;;;;;5087224;28;20448;-84
2023/04/13 11:57:43;;;;;;;4.00;1.07;;;14.80;49.30;;;;;;5089086;28;20476;-85
2023/04/13 12:00:17;;;;;;;3.00;1.13;;;15.00;49.00;;;;;;5089349;28;20453;-84
2023/04/13 12:02:45;;;;;;;3.13;1.20;;;15.10;47.10;;;;;;5070876;28;20463;-85
2023/04/13 12:05:23;;;;;;;2.27;1.20;;;15.10;48.10;;;;;;5079416;28;20917;-85
2023/04/13 12:07:50;;;;;;;2.37;1.20;;;15.10;47.00;;;;;;5085675;27;20475;-85
2023/04/13 12:10:22;;;;;;;2.40;1.20;;;15.00;47.70;;;;;;5087495;28;20508;-84
2023/04/13 12:12:57;;;;;;;3.80;1.33;;;15.10;47.40;;;;;;5086706;28;20475;-84
2023/04/13 12:15:27;;;;;;;8.43;1.60;;;15.10;47.20;;;;;;5087563;27;20691;-84
2023/04/13 12:17:55;;;;;;;3.93;1.97;;;15.10;47.80;;;;;;5083156;27;20466;-85
2023/04/13 12:20:22;;;;;;;2.30;1.80;;;15.30;48.60;;;;;;5042414;28;20531;-86
2023/04/13 12:22:49;;;;;;;4.13;1.33;;;15.20;47.10;;;;;;5051438;28;20542;-86
2023/04/13 12:25:17;;;;;;;7.17;4.80;;;15.40;47.10;;;;;;5068235;28;21162;-87
2023/04/13 12:27:45;;;;;;;44.53;20.20;;;15.60;47.40;;;;;;5088705;28;20451;-85
2023/04/13 12:30:14;;;;;;;37.43;17.23;;;15.70;46.20;;;;;;5106902;27;20447;-85
2023/04/13 12:32:43;;;;;;;240.57;94.77;;;15.60;46.60;;;;;;5087912;28;20504;-85
2023/04/13 12:35:11;;;;;;;14.33;9.00;;;15.60;45.90;;;;;;5109109;27;20450;-85
2023/04/13 12:37:40;;;;;;;8.87;5.03;;;15.70;46.90;;;;;;5069902;28;20455;-85
2023/04/13 12:40:11;;;;;;;2.10;1.43;;;15.30;48.90;;;;;;5086437;27;20559;-84
2023/04/13 12:42:38;;;;;;;4.00;2.40;;;14.80;50.50;;;;;;5088433;28;20485;-85
2023/04/13 12:45:06;;;;;;;1.60;1.30;;;14.50;52.20;;;;;;5067379;28;20483;-84
2023/04/13 12:47:35;;;;;;;2.07;1.17;;;14.80;52.40;;;;;;5062740;28;20445;-86
2023/04/13 12:50:05;;;;;;;4.00;1.20;;;15.30;51.20;;;;;;5086273;28;20964;-85
2023/04/13 12:52:32;;;;;;;2.50;1.20;;;15.70;51.60;;;;;;5069436;28;20903;-86
2023/04/13 12:54:59;;;;;;;2.10;1.33;;;16.20;48.20;;;;;;5069373;28;20452;-84
2023/04/13 12:57:27;;;;;;;1.50;1.23;;;16.50;46.70;;;;;;5087175;28;20448;-86
2023/04/13 12:59:54;;;;;;;2.07;1.37;;;16.40;47.90;;;;;;5067561;28;20484;-85